GianTS Dolphin — EA5313 — position and weather

sailwx.info

Track history (hours):
 
Tides and Currents Weather Stations Pressure Air Temp Water Temp Dewpoint Dewpoint Depression Visibility Wind Speed Wind Dir Waves Ship Positions

GianTS Dolphin

Last reported at 2017-Oct-29 17:19 UTC. Time now 2017-Nov-21 06:26 UTC.
Position N 38°55' E 001°26'.
Warning: this ship's position is 22 days out of date.

Length 19 m.

Type: Passenger vessel. MMSI: 224027230.

Date/timePositionNaut miles runAvg speedWind from/ knotsBaromVisibWave heightAir tempDewpointWater temp
2017-Oct-29 17:19N 38°55' E 001°26'1 2.6
2017-Oct-29 17:00N 38°54' E 001°25'2 0.2
2017-Oct-29 09:06N 38°53' E 001°25'1 9.1
2017-Oct-29 08:59N 38°54' E 001°25'1 1.1
2017-Oct-29 08:28N 38°54' E 001°25'1 0.1
2017-Oct-28 16:32N 38°55' E 001°26'0 0.2
2017-Oct-28 16:29N 38°55' E 001°26'2 0.3
2017-Oct-28 08:12N 38°53' E 001°25'1 3.4
2017-Oct-28 07:55N 38°54' E 001°25'1 1.9
2017-Oct-28 07:27N 38°54' E 001°26'1 1.6
2017-Oct-28 07:00N 38°55' E 001°26'0 0.0
2017-Oct-27 17:38N 38°55' E 001°26'0 0.9
2017-Oct-27 17:30N 38°55' E 001°26'2 0.3
2017-Oct-27 09:15N 38°53' E 001°25'1 2.5
2017-Oct-27 08:52N 38°54' E 001°25'0 1.2
2017-Oct-27 08:29N 38°54' E 001°26'1 0.0
2017-Oct-26 16:26N 38°55' E 001°26'2 0.3
2017-Oct-26 08:18N 38°53' E 001°25'1 3.8
2017-Oct-26 07:56N 38°54' E 001°26'0 0.7
2017-Oct-26 07:30N 38°54' E 001°25'1 0.1
2017-Oct-25 17:33N 38°55' E 001°26'0 4.4
2017-Oct-25 17:29N 38°55' E 001°27'3 0.3
2017-Oct-25 09:12N 38°52' E 001°25'1 4.3
2017-Oct-25 08:54N 38°54' E 001°25'1 1.3
2017-Oct-25 08:31N 38°54' E 001°25'0 0.0
2017-Oct-25 07:54N 38°54' E 001°25'1 0.1
2017-Oct-24 16:26N 38°55' E 001°26'3 0.3
2017-Oct-24 08:14N 38°52' E 001°25'1 4.1
2017-Oct-24 07:52N 38°54' E 001°25'1 1.4
2017-Oct-24 07:30N 38°54' E 001°25'1 1.7
2017-Oct-24 06:59N 38°55' E 001°26'0 0.0
2017-Oct-23 16:40N 38°55' E 001°26'1 4.4
2017-Oct-23 16:30N 38°54' E 001°26'2 0.2
2017-Oct-23 08:17N 38°52' E 001°25'1 4.7
2017-Oct-23 08:00N 38°54' E 001°25'1 1.1
2017-Oct-23 07:30N 38°54' E 001°25'1 0.1
2017-Oct-22 17:11N 38°55' E 001°26'1 4.5
2017-Oct-22 16:59N 38°54' E 001°25'1 0.1
2017-Oct-22 09:07N 38°53' E 001°25'1 2.1
2017-Oct-22 08:52N 38°54' E 001°25'1 1.3
2017-Oct-22 08:27N 38°54' E 001°25'1 0.1
2017-Oct-21 17:41N 38°55' E 001°26'0 2.2
2017-Oct-21 17:30N 38°54' E 001°27'2 0.2
2017-Oct-21 08:11N 38°53' E 001°25'1 3.7
2017-Oct-21 07:53N 38°54' E 001°25'1 1.2
2017-Oct-21 07:26N 38°54' E 001°25'1 0.1
2017-Oct-20 17:28N 38°55' E 001°26'2 0.2
2017-Oct-20 09:15N 38°53' E 001°25'1 2.4
2017-Oct-20 08:54N 38°54' E 001°25'0 0.7
2017-Oct-20 08:17N 38°54' E 001°25'  
Track history (hours):
 
Tides and Currents Weather Stations Pressure Air Temp Water Temp Dewpoint Dewpoint Depression Visibility Wind Speed Wind Dir Waves Ship Positions

GianTS Dolphin

Last reported at 2017-Oct-29 17:19 UTC. Time now 2017-Nov-21 06:26 UTC.
Position N 38°55' E 001°26'.
Warning: this ship's position is 22 days out of date.

Length 19 m.

Type: Passenger vessel. MMSI: 224027230.

Date/timePositionNaut miles runAvg speedWind from/ knotsBaromVisibWave heightAir tempDewpointWater temp
2017-Oct-29 17:19N 38°55' E 001°26'1 2.6
2017-Oct-29 17:00N 38°54' E 001°25'2 0.2
2017-Oct-29 09:06N 38°53' E 001°25'1 9.1
2017-Oct-29 08:59N 38°54' E 001°25'1 1.1
2017-Oct-29 08:28N 38°54' E 001°25'1 0.1
2017-Oct-28 16:32N 38°55' E 001°26'0 0.2
2017-Oct-28 16:29N 38°55' E 001°26'2 0.3
2017-Oct-28 08:12N 38°53' E 001°25'1 3.4
2017-Oct-28 07:55N 38°54' E 001°25'1 1.9
2017-Oct-28 07:27N 38°54' E 001°26'1 1.6
2017-Oct-28 07:00N 38°55' E 001°26'0 0.0
2017-Oct-27 17:38N 38°55' E 001°26'0 0.9
2017-Oct-27 17:30N 38°55' E 001°26'2 0.3
2017-Oct-27 09:15N 38°53' E 001°25'1 2.5
2017-Oct-27 08:52N 38°54' E 001°25'0 1.2
2017-Oct-27 08:29N 38°54' E 001°26'1 0.0
2017-Oct-26 16:26N 38°55' E 001°26'2 0.3
2017-Oct-26 08:18N 38°53' E 001°25'1 3.8
2017-Oct-26 07:56N 38°54' E 001°26'0 0.7
2017-Oct-26 07:30N 38°54' E 001°25'1 0.1
2017-Oct-25 17:33N 38°55' E 001°26'0 4.4
2017-Oct-25 17:29N 38°55' E 001°27'3 0.3
2017-Oct-25 09:12N 38°52' E 001°25'1 4.3
2017-Oct-25 08:54N 38°54' E 001°25'1 1.3
2017-Oct-25 08:31N 38°54' E 001°25'0 0.0
2017-Oct-25 07:54N 38°54' E 001°25'1 0.1
2017-Oct-24 16:26N 38°55' E 001°26'3 0.3
2017-Oct-24 08:14N 38°52' E 001°25'1 4.1
2017-Oct-24 07:52N 38°54' E 001°25'1 1.4
2017-Oct-24 07:30N 38°54' E 001°25'1 1.7
2017-Oct-24 06:59N 38°55' E 001°26'0 0.0
2017-Oct-23 16:40N 38°55' E 001°26'1 4.4
2017-Oct-23 16:30N 38°54' E 001°26'2 0.2
2017-Oct-23 08:17N 38°52' E 001°25'1 4.7
2017-Oct-23 08:00N 38°54' E 001°25'1 1.1
2017-Oct-23 07:30N 38°54' E 001°25'1 0.1
2017-Oct-22 17:11N 38°55' E 001°26'1 4.5
2017-Oct-22 16:59N 38°54' E 001°25'1 0.1
2017-Oct-22 09:07N 38°53' E 001°25'1 2.1
2017-Oct-22 08:52N 38°54' E 001°25'1 1.3
2017-Oct-22 08:27N 38°54' E 001°25'1 0.1
2017-Oct-21 17:41N 38°55' E 001°26'0 2.2
2017-Oct-21 17:30N 38°54' E 001°27'2 0.2
2017-Oct-21 08:11N 38°53' E 001°25'1 3.7
2017-Oct-21 07:53N 38°54' E 001°25'1 1.2
2017-Oct-21 07:26N 38°54' E 001°25'1 0.1
2017-Oct-20 17:28N 38°55' E 001°26'2 0.2
2017-Oct-20 09:15N 38°53' E 001°25'1 2.4
2017-Oct-20 08:54N 38°54' E 001°25'0 0.7
2017-Oct-20 08:17N 38°54' E 001°25'  

Dump ship's entire track history